Terminal Aerodrome Forecast
Issued by NWS Cleveland, OH

Home | Current Version | Previous Version | Graphics & Text | Print | Product List | Glossary On
Versions: 1 2 3 4 5 6 7 8 9 10 11 12 13 14 15 16 17 18 19 20
000
FTUS41 KCLE 232332
TAFCAK
TAF
KCAK 232332Z 2400/2424 22004KT 5SM -SHRA VCTS BKN040CB
     FM240500 17005KT 4SM -SHRA BR OVC020
     FM240900 17007KT P6SM BKN035
     FM241300 19012KT P6SM SCT050
     FM241600 19016G24KT P6SM SCT045=

USA.gov is the U.S. government's official web portal to all federal, state and local government web resources and services.